sensor_id;sensor_type;location;lat;lon;timestamp;P1;durP1;ratioP1;P2;durP2;ratioP2
3407;SDS011;1717;50.240;8.406;2022-11-15T00:00:29;9.67;;;8.27;;
3407;SDS011;1717;50.240;8.406;2022-11-15T00:02:56;10.00;;;6.53;;
3407;SDS011;1717;50.240;8.406;2022-11-15T00:05:22;8.03;;;7.23;;
3407;SDS011;1717;50.240;8.406;2022-11-15T00:07:49;9.10;;;8.20;;
3407;SDS011;1717;50.240;8.406;2022-11-15T00:10:16;10.17;;;7.43;;
3407;SDS011;1717;50.240;8.406;2022-11-15T00:12:43;9.13;;;8.13;;
3407;SDS011;1717;50.240;8.406;2022-11-15T00:15:11;10.70;;;8.57;;
3407;SDS011;1717;50.240;8.406;2022-11-15T00:17:38;8.70;;;7.20;;
3407;SDS011;1717;50.240;8.406;2022-11-15T00:20:05;9.83;;;8.23;;
3407;SDS011;1717;50.240;8.406;2022-11-15T00:22:33;9.50;;;7.67;;
3407;SDS011;1717;50.240;8.406;2022-11-15T00:25:00;11.97;;;7.50;;
3407;SDS011;1717;50.240;8.406;2022-11-15T00:27:28;11.17;;;8.33;;
3407;SDS011;1717;50.240;8.406;2022-11-15T00:29:55;9.50;;;8.50;;
3407;SDS011;1717;50.240;8.406;2022-11-15T00:32:23;10.37;;;7.40;;
3407;SDS011;1717;50.240;8.406;2022-11-15T00:34:50;10.60;;;7.80;;
3407;SDS011;1717;50.240;8.406;2022-11-15T00:37:17;9.47;;;8.57;;
3407;SDS011;1717;50.240;8.406;2022-11-15T00:39:43;11.93;;;7.80;;
3407;SDS011;1717;50.240;8.406;2022-11-15T00:42:10;9.87;;;7.97;;
3407;SDS011;1717;50.240;8.406;2022-11-15T00:44:37;10.30;;;8.67;;
3407;SDS011;1717;50.240;8.406;2022-11-15T00:47:04;11.50;;;8.20;;
3407;SDS011;1717;50.240;8.406;2022-11-15T00:49:32;9.90;;;8.30;;
3407;SDS011;1717;50.240;8.406;2022-11-15T00:51:59;13.17;;;9.27;;
3407;SDS011;1717;50.240;8.406;2022-11-15T00:54:26;14.00;;;8.00;;
3407;SDS011;1717;50.240;8.406;2022-11-15T00:56:53;10.90;;;8.60;;
3407;SDS011;1717;50.240;8.406;2022-11-15T00:59:19;11.90;;;7.97;;
3407;SDS011;1717;50.240;8.406;2022-11-15T01:01:46;11.90;;;8.50;;
3407;SDS011;1717;50.240;8.406;2022-11-15T01:04:13;10.43;;;8.70;;
3407;SDS011;1717;50.240;8.406;2022-11-15T01:06:42;7.77;;;6.70;;
3407;SDS011;1717;50.240;8.406;2022-11-15T01:09:08;9.33;;;8.37;;
3407;SDS011;1717;50.240;8.406;2022-11-15T01:11:35;9.97;;;8.23;;
3407;SDS011;1717;50.240;8.406;2022-11-15T01:14:02;11.17;;;8.57;;
3407;SDS011;1717;50.240;8.406;2022-11-15T01:16:29;13.70;;;7.50;;
3407;SDS011;1717;50.240;8.406;2022-11-15T01:18:57;10.60;;;7.80;;
3407;SDS011;1717;50.240;8.406;2022-11-15T01:21:24;11.33;;;7.60;;
3407;SDS011;1717;50.240;8.406;2022-11-15T01:23:53;10.00;;;8.80;;
3407;SDS011;1717;50.240;8.406;2022-11-15T01:26:21;8.90;;;7.20;;
3407;SDS011;1717;50.240;8.406;2022-11-15T01:28:49;10.13;;;7.67;;
3407;SDS011;1717;50.240;8.406;2022-11-15T01:31:17;10.53;;;8.13;;
3407;SDS011;1717;50.240;8.406;2022-11-15T01:33:46;8.97;;;6.83;;
3407;SDS011;1717;50.240;8.406;2022-11-15T01:36:14;13.50;;;8.53;;
3407;SDS011;1717;50.240;8.406;2022-11-15T01:38:42;7.47;;;6.37;;
3407;SDS011;1717;50.240;8.406;2022-11-15T01:41:15;11.03;;;7.57;;
3407;SDS011;1717;50.240;8.406;2022-11-15T01:43:43;9.60;;;7.33;;
3407;SDS011;1717;50.240;8.406;2022-11-15T01:46:17;8.90;;;6.53;;
3407;SDS011;1717;50.240;8.406;2022-11-15T01:48:51;8.60;;;7.37;;
3407;SDS011;1717;50.240;8.406;2022-11-15T01:51:20;9.33;;;6.57;;
3407;SDS011;1717;50.240;8.406;2022-11-15T01:53:51;8.77;;;7.37;;
3407;SDS011;1717;50.240;8.406;2022-11-15T01:56:23;13.87;;;7.60;;
3407;SDS011;1717;50.240;8.406;2022-11-15T01:58:51;10.43;;;7.30;;
3407;SDS011;1717;50.240;8.406;2022-11-15T02:01:21;7.93;;;7.13;;
3407;SDS011;1717;50.240;8.406;2022-11-15T02:03:50;8.77;;;7.03;;
3407;SDS011;1717;50.240;8.406;2022-11-15T02:06:20;12.13;;;8.47;;
3407;SDS011;1717;50.240;8.406;2022-11-15T02:08:48;9.43;;;7.73;;
3407;SDS011;1717;50.240;8.406;2022-11-15T02:11:15;11.40;;;7.90;;
3407;SDS011;1717;50.240;8.406;2022-11-15T02:13:43;8.80;;;7.23;;
3407;SDS011;1717;50.240;8.406;2022-11-15T02:16:13;11.30;;;7.33;;
3407;SDS011;1717;50.240;8.406;2022-11-15T02:18:49;8.40;;;7.33;;
3407;SDS011;1717;50.240;8.406;2022-11-15T02:21:22;8.07;;;6.93;;
3407;SDS011;1717;50.240;8.406;2022-11-15T02:27:20;10.40;;;6.77;;
3407;SDS011;1717;50.240;8.406;2022-11-15T02:30:14;9.83;;;7.17;;
3407;SDS011;1717;50.240;8.406;2022-11-15T02:32:48;10.27;;;7.00;;
3407;SDS011;1717;50.240;8.406;2022-11-15T02:35:21;6.73;;;6.00;;
3407;SDS011;1717;50.240;8.406;2022-11-15T02:37:56;12.17;;;7.67;;
3407;SDS011;1717;50.240;8.406;2022-11-15T02:40:27;8.40;;;7.57;;
3407;SDS011;1717;50.240;8.406;2022-11-15T02:43:03;8.70;;;7.40;;
3407;SDS011;1717;50.240;8.406;2022-11-15T02:45:54;8.57;;;7.17;;
3407;SDS011;1717;50.240;8.406;2022-11-15T02:48:26;9.33;;;6.40;;
3407;SDS011;1717;50.240;8.406;2022-11-15T02:50:53;10.27;;;6.30;;
3407;SDS011;1717;50.240;8.406;2022-11-15T02:53:23;8.70;;;6.57;;
3407;SDS011;1717;50.240;8.406;2022-11-15T02:55:50;10.77;;;7.27;;
3407;SDS011;1717;50.240;8.406;2022-11-15T02:58:23;8.20;;;7.00;;
3407;SDS011;1717;50.240;8.406;2022-11-15T03:01:04;10.90;;;7.40;;
3407;SDS011;1717;50.240;8.406;2022-11-15T03:03:43;9.27;;;7.10;;
3407;SDS011;1717;50.240;8.406;2022-11-15T03:06:24;9.13;;;7.00;;
3407;SDS011;1717;50.240;8.406;2022-11-15T03:08:59;10.93;;;7.37;;
3407;SDS011;1717;50.240;8.406;2022-11-15T03:11:32;8.80;;;7.00;;
3407;SDS011;1717;50.240;8.406;2022-11-15T03:14:06;12.37;;;7.90;;
3407;SDS011;1717;50.240;8.406;2022-11-15T03:16:46;9.23;;;8.30;;
3407;SDS011;1717;50.240;8.406;2022-11-15T03:19:17;10.03;;;7.43;;
3407;SDS011;1717;50.240;8.406;2022-11-15T03:21:50;9.03;;;7.50;;
3407;SDS011;1717;50.240;8.406;2022-11-15T03:24:18;8.90;;;7.87;;
3407;SDS011;1717;50.240;8.406;2022-11-15T03:26:48;11.60;;;7.53;;
3407;SDS011;1717;50.240;8.406;2022-11-15T03:29:19;12.73;;;8.60;;
3407;SDS011;1717;50.240;8.406;2022-11-15T03:31:53;8.87;;;7.70;;
3407;SDS011;1717;50.240;8.406;2022-11-15T03:34:26;9.73;;;8.63;;
3407;SDS011;1717;50.240;8.406;2022-11-15T03:36:56;10.77;;;7.57;;
3407;SDS011;1717;50.240;8.406;2022-11-15T03:39:23;10.47;;;8.83;;
3407;SDS011;1717;50.240;8.406;2022-11-15T03:41:53;12.00;;;8.47;;
3407;SDS011;1717;50.240;8.406;2022-11-15T03:44:32;7.90;;;7.13;;
3407;SDS011;1717;50.240;8.406;2022-11-15T03:47:07;10.50;;;8.03;;
3407;SDS011;1717;50.240;8.406;2022-11-15T03:49:40;13.73;;;8.13;;
3407;SDS011;1717;50.240;8.406;2022-11-15T03:52:11;8.33;;;7.23;;
3407;SDS011;1717;50.240;8.406;2022-11-15T03:54:47;12.97;;;6.80;;
3407;SDS011;1717;50.240;8.406;2022-11-15T03:57:16;8.70;;;7.27;;
3407;SDS011;1717;50.240;8.406;2022-11-15T03:59:43;8.53;;;7.30;;
3407;SDS011;1717;50.240;8.406;2022-11-15T04:02:11;8.80;;;6.87;;
3407;SDS011;1717;50.240;8.406;2022-11-15T04:04:39;11.43;;;6.87;;
3407;SDS011;1717;50.240;8.406;2022-11-15T04:07:08;7.83;;;5.90;;
3407;SDS011;1717;50.240;8.406;2022-11-15T04:09:35;9.57;;;7.10;;
3407;SDS011;1717;50.240;8.406;2022-11-15T04:12:23;7.87;;;6.03;;
3407;SDS011;1717;50.240;8.406;2022-11-15T04:14:57;6.50;;;5.87;;
3407;SDS011;1717;50.240;8.406;2022-11-15T04:17:36;7.93;;;6.30;;
3407;SDS011;1717;50.240;8.406;2022-11-15T04:20:05;17.97;;;7.00;;
3407;SDS011;1717;50.240;8.406;2022-11-15T04:22:51;7.80;;;5.23;;
3407;SDS011;1717;50.240;8.406;2022-11-15T04:25:37;7.40;;;6.47;;
3407;SDS011;1717;50.240;8.406;2022-11-15T04:28:05;7.97;;;5.80;;
3407;SDS011;1717;50.240;8.406;2022-11-15T04:30:32;6.10;;;5.50;;
3407;SDS011;1717;50.240;8.406;2022-11-15T04:33:02;6.13;;;5.53;;
3407;SDS011;1717;50.240;8.406;2022-11-15T04:35:29;7.53;;;6.50;;
3407;SDS011;1717;50.240;8.406;2022-11-15T04:37:56;8.60;;;5.97;;
3407;SDS011;1717;50.240;8.406;2022-11-15T04:40:23;6.63;;;5.17;;
3407;SDS011;1717;50.240;8.406;2022-11-15T04:42:50;7.80;;;5.57;;
3407;SDS011;1717;50.240;8.406;2022-11-15T04:45:17;7.57;;;5.73;;
3407;SDS011;1717;50.240;8.406;2022-11-15T04:47:44;7.13;;;5.40;;
3407;SDS011;1717;50.240;8.406;2022-11-15T04:50:13;6.80;;;6.13;;
3407;SDS011;1717;50.240;8.406;2022-11-15T04:52:43;7.50;;;5.90;;
3407;SDS011;1717;50.240;8.406;2022-11-15T04:55:16;6.80;;;5.80;;
3407;SDS011;1717;50.240;8.406;2022-11-15T04:57:43;7.37;;;5.13;;
3407;SDS011;1717;50.240;8.406;2022-11-15T05:00:11;6.23;;;4.90;;
3407;SDS011;1717;50.240;8.406;2022-11-15T05:02:40;6.53;;;5.20;;
3407;SDS011;1717;50.240;8.406;2022-11-15T05:05:25;5.97;;;5.37;;
3407;SDS011;1717;50.240;8.406;2022-11-15T05:07:52;6.30;;;5.40;;
3407;SDS011;1717;50.240;8.406;2022-11-15T05:10:20;7.00;;;4.43;;
3407;SDS011;1717;50.240;8.406;2022-11-15T05:12:50;6.47;;;5.23;;
3407;SDS011;1717;50.240;8.406;2022-11-15T05:15:17;5.97;;;3.70;;
3407;SDS011;1717;50.240;8.406;2022-11-15T05:17:44;5.03;;;4.40;;
3407;SDS011;1717;50.240;8.406;2022-11-15T05:20:11;4.67;;;3.30;;
3407;SDS011;1717;50.240;8.406;2022-11-15T05:22:40;3.83;;;3.23;;
3407;SDS011;1717;50.240;8.406;2022-11-15T05:25:07;4.30;;;3.23;;
3407;SDS011;1717;50.240;8.406;2022-11-15T05:27:35;13.73;;;3.43;;
3407;SDS011;1717;50.240;8.406;2022-11-15T05:40:48;4.93;;;4.43;;
3407;SDS011;1717;50.240;8.406;2022-11-15T05:43:15;4.87;;;4.20;;
3407;SDS011;1717;50.240;8.406;2022-11-15T05:45:42;5.70;;;4.73;;
3407;SDS011;1717;50.240;8.406;2022-11-15T05:48:09;6.10;;;5.50;;
3407;SDS011;1717;50.240;8.406;2022-11-15T05:50:38;5.83;;;4.13;;
3407;SDS011;1717;50.240;8.406;2022-11-15T05:53:07;5.10;;;4.00;;
3407;SDS011;1717;50.240;8.406;2022-11-15T05:55:34;6.10;;;4.40;;
3407;SDS011;1717;50.240;8.406;2022-11-15T05:58:02;8.20;;;4.40;;
3407;SDS011;1717;50.240;8.406;2022-11-15T06:00:29;7.17;;;4.90;;
3407;SDS011;1717;50.240;8.406;2022-11-15T06:02:56;6.37;;;4.37;;
3407;SDS011;1717;50.240;8.406;2022-11-15T06:05:22;6.23;;;4.80;;
3407;SDS011;1717;50.240;8.406;2022-11-15T06:07:49;5.27;;;4.77;;
3407;SDS011;1717;50.240;8.406;2022-11-15T06:10:16;5.37;;;4.80;;
3407;SDS011;1717;50.240;8.406;2022-11-15T06:12:43;6.97;;;4.17;;
3407;SDS011;1717;50.240;8.406;2022-11-15T06:15:11;6.37;;;5.10;;
3407;SDS011;1717;50.240;8.406;2022-11-15T06:17:38;7.53;;;5.20;;
3407;SDS011;1717;50.240;8.406;2022-11-15T06:20:08;5.93;;;5.10;;
3407;SDS011;1717;50.240;8.406;2022-11-15T06:22:35;5.60;;;5.00;;
3407;SDS011;1717;50.240;8.406;2022-11-15T06:25:02;7.60;;;5.47;;
3407;SDS011;1717;50.240;8.406;2022-11-15T06:27:29;7.87;;;5.83;;
3407;SDS011;1717;50.240;8.406;2022-11-15T06:29:56;8.30;;;5.50;;
3407;SDS011;1717;50.240;8.406;2022-11-15T06:32:24;7.90;;;5.50;;
3407;SDS011;1717;50.240;8.406;2022-11-15T06:34:51;10.00;;;6.90;;
3407;SDS011;1717;50.240;8.406;2022-11-15T06:37:18;7.30;;;6.20;;
3407;SDS011;1717;50.240;8.406;2022-11-15T06:39:45;7.30;;;6.23;;
3407;SDS011;1717;50.240;8.406;2022-11-15T06:42:12;9.00;;;5.87;;
3407;SDS011;1717;50.240;8.406;2022-11-15T06:44:38;7.37;;;6.40;;
3407;SDS011;1717;50.240;8.406;2022-11-15T06:47:05;8.43;;;6.83;;
3407;SDS011;1717;50.240;8.406;2022-11-15T06:49:33;8.73;;;7.10;;
3407;SDS011;1717;50.240;8.406;2022-11-15T06:52:00;10.63;;;7.53;;
3407;SDS011;1717;50.240;8.406;2022-11-15T06:54:27;7.27;;;6.47;;
3407;SDS011;1717;50.240;8.406;2022-11-15T06:56:54;8.90;;;7.27;;
3407;SDS011;1717;50.240;8.406;2022-11-15T06:59:20;8.40;;;6.27;;
3407;SDS011;1717;50.240;8.406;2022-11-15T07:01:47;9.10;;;6.80;;
3407;SDS011;1717;50.240;8.406;2022-11-15T07:04:15;8.60;;;6.07;;
3407;SDS011;1717;50.240;8.406;2022-11-15T07:06:43;7.70;;;6.87;;
3407;SDS011;1717;50.240;8.406;2022-11-15T07:09:12;7.37;;;6.37;;
3407;SDS011;1717;50.240;8.406;2022-11-15T07:11:39;7.33;;;6.60;;
3407;SDS011;1717;50.240;8.406;2022-11-15T07:14:06;6.23;;;5.60;;
3407;SDS011;1717;50.240;8.406;2022-11-15T07:16:33;8.63;;;5.97;;
3407;SDS011;1717;50.240;8.406;2022-11-15T07:19:00;7.00;;;6.30;;
3407;SDS011;1717;50.240;8.406;2022-11-15T07:21:27;7.73;;;5.80;;
3407;SDS011;1717;50.240;8.406;2022-11-15T07:23:55;10.60;;;6.00;;
3407;SDS011;1717;50.240;8.406;2022-11-15T07:26:22;9.73;;;6.57;;
3407;SDS011;1717;50.240;8.406;2022-11-15T07:28:49;5.87;;;5.27;;
3407;SDS011;1717;50.240;8.406;2022-11-15T07:31:16;7.47;;;6.50;;
3407;SDS011;1717;50.240;8.406;2022-11-15T07:33:42;6.80;;;5.23;;
3407;SDS011;1717;50.240;8.406;2022-11-15T07:36:09;6.40;;;5.70;;
3407;SDS011;1717;50.240;8.406;2022-11-15T07:38:36;5.53;;;5.03;;
3407;SDS011;1717;50.240;8.406;2022-11-15T07:41:04;8.60;;;5.70;;
3407;SDS011;1717;50.240;8.406;2022-11-15T07:43:32;6.10;;;4.90;;
3407;SDS011;1717;50.240;8.406;2022-11-15T07:46:03;7.17;;;6.00;;
3407;SDS011;1717;50.240;8.406;2022-11-15T07:48:30;6.30;;;4.77;;
3407;SDS011;1717;50.240;8.406;2022-11-15T07:50:57;6.83;;;4.67;;
3407;SDS011;1717;50.240;8.406;2022-11-15T07:53:24;5.20;;;4.80;;
3407;SDS011;1717;50.240;8.406;2022-11-15T07:55:51;8.80;;;5.87;;
3407;SDS011;1717;50.240;8.406;2022-11-15T07:58:19;7.10;;;6.13;;
3407;SDS011;1717;50.240;8.406;2022-11-15T08:00:46;6.77;;;4.70;;
3407;SDS011;1717;50.240;8.406;2022-11-15T08:03:14;4.83;;;4.30;;
3407;SDS011;1717;50.240;8.406;2022-11-15T08:05:41;6.73;;;5.80;;
3407;SDS011;1717;50.240;8.406;2022-11-15T08:08:15;7.87;;;5.53;;
3407;SDS011;1717;50.240;8.406;2022-11-15T08:10:42;6.93;;;5.43;;
3407;SDS011;1717;50.240;8.406;2022-11-15T08:13:10;9.17;;;6.20;;
3407;SDS011;1717;50.240;8.406;2022-11-15T08:15:39;5.60;;;4.60;;
3407;SDS011;1717;50.240;8.406;2022-11-15T08:18:06;5.83;;;4.87;;
3407;SDS011;1717;50.240;8.406;2022-11-15T08:20:36;5.77;;;5.17;;
3407;SDS011;1717;50.240;8.406;2022-11-15T08:23:04;7.73;;;5.43;;
3407;SDS011;1717;50.240;8.406;2022-11-15T08:25:32;5.40;;;4.90;;
3407;SDS011;1717;50.240;8.406;2022-11-15T08:28:01;5.40;;;4.63;;
3407;SDS011;1717;50.240;8.406;2022-11-15T08:30:30;5.77;;;5.17;;
3407;SDS011;1717;50.240;8.406;2022-11-15T08:33:02;6.73;;;5.43;;
3407;SDS011;1717;50.240;8.406;2022-11-15T08:35:29;5.47;;;4.73;;
3407;SDS011;1717;50.240;8.406;2022-11-15T08:37:56;5.37;;;4.90;;
3407;SDS011;1717;50.240;8.406;2022-11-15T08:40:23;5.43;;;4.50;;
3407;SDS011;1717;50.240;8.406;2022-11-15T08:42:52;6.57;;;5.37;;
3407;SDS011;1717;50.240;8.406;2022-11-15T08:45:19;7.67;;;5.37;;
3407;SDS011;1717;50.240;8.406;2022-11-15T08:47:46;5.97;;;5.13;;
3407;SDS011;1717;50.240;8.406;2022-11-15T08:50:14;4.93;;;4.53;;
3407;SDS011;1717;50.240;8.406;2022-11-15T08:52:42;6.57;;;4.93;;
3407;SDS011;1717;50.240;8.406;2022-11-15T08:55:08;6.00;;;5.43;;
3407;SDS011;1717;50.240;8.406;2022-11-15T08:57:35;4.37;;;3.97;;
3407;SDS011;1717;50.240;8.406;2022-11-15T09:00:02;5.47;;;4.97;;
3407;SDS011;1717;50.240;8.406;2022-11-15T09:02:30;5.60;;;4.57;;
3407;SDS011;1717;50.240;8.406;2022-11-15T09:04:57;7.00;;;5.03;;
3407;SDS011;1717;50.240;8.406;2022-11-15T09:07:25;6.13;;;5.10;;
3407;SDS011;1717;50.240;8.406;2022-11-15T09:09:54;7.13;;;4.50;;
3407;SDS011;1717;50.240;8.406;2022-11-15T09:12:21;4.57;;;3.90;;
3407;SDS011;1717;50.240;8.406;2022-11-15T09:14:48;5.07;;;4.27;;
3407;SDS011;1717;50.240;8.406;2022-11-15T09:17:15;7.43;;;5.00;;
3407;SDS011;1717;50.240;8.406;2022-11-15T09:19:42;5.10;;;4.50;;
3407;SDS011;1717;50.240;8.406;2022-11-15T09:22:09;5.67;;;4.30;;
3407;SDS011;1717;50.240;8.406;2022-11-15T09:24:37;4.73;;;4.00;;
3407;SDS011;1717;50.240;8.406;2022-11-15T09:27:04;6.27;;;5.03;;
3407;SDS011;1717;50.240;8.406;2022-11-15T09:29:30;5.27;;;4.77;;
3407;SDS011;1717;50.240;8.406;2022-11-15T09:31:57;6.20;;;4.47;;
3407;SDS011;1717;50.240;8.406;2022-11-15T09:34:24;4.50;;;4.10;;
3407;SDS011;1717;50.240;8.406;2022-11-15T09:36:51;5.23;;;4.67;;
3407;SDS011;1717;50.240;8.406;2022-11-15T09:39:18;5.33;;;4.87;;
3407;SDS011;1717;50.240;8.406;2022-11-15T09:41:50;4.67;;;4.23;;
3407;SDS011;1717;50.240;8.406;2022-11-15T09:44:50;4.20;;;3.80;;
3407;SDS011;1717;50.240;8.406;2022-11-15T09:47:35;4.20;;;3.80;;
3407;SDS011;1717;50.240;8.406;2022-11-15T09:50:12;4.00;;;3.60;;
3407;SDS011;1717;50.240;8.406;2022-11-15T09:52:42;5.40;;;4.00;;
3407;SDS011;1717;50.240;8.406;2022-11-15T09:55:10;6.97;;;4.43;;
3407;SDS011;1717;50.240;8.406;2022-11-15T09:57:48;4.13;;;3.83;;
3407;SDS011;1717;50.240;8.406;2022-11-15T10:00:19;4.70;;;4.20;;
3407;SDS011;1717;50.240;8.406;2022-11-15T10:05:37;6.73;;;4.13;;
3407;SDS011;1717;50.240;8.406;2022-11-15T10:08:10;4.67;;;3.50;;
3407;SDS011;1717;50.240;8.406;2022-11-15T10:10:43;4.10;;;3.70;;
3407;SDS011;1717;50.240;8.406;2022-11-15T10:13:22;12.73;;;3.93;;
3407;SDS011;1717;50.240;8.406;2022-11-15T10:15:51;3.73;;;3.30;;
3407;SDS011;1717;50.240;8.406;2022-11-15T10:18:23;5.57;;;3.77;;
3407;SDS011;1717;50.240;8.406;2022-11-15T10:21:02;6.30;;;3.77;;
3407;SDS011;1717;50.240;8.406;2022-11-15T10:23:40;5.87;;;4.03;;
3407;SDS011;1717;50.240;8.406;2022-11-15T10:26:08;5.27;;;3.70;;
3407;SDS011;1717;50.240;8.406;2022-11-15T10:28:40;6.30;;;3.60;;
3407;SDS011;1717;50.240;8.406;2022-11-15T10:31:19;5.90;;;3.70;;
3407;SDS011;1717;50.240;8.406;2022-11-15T10:33:48;4.57;;;4.00;;
3407;SDS011;1717;50.240;8.406;2022-11-15T10:36:20;4.13;;;3.60;;
3407;SDS011;1717;50.240;8.406;2022-11-15T10:38:53;6.43;;;4.50;;
3407;SDS011;1717;50.240;8.406;2022-11-15T10:41:23;4.50;;;4.10;;
3407;SDS011;1717;50.240;8.406;2022-11-15T10:44:10;4.53;;;4.03;;
3407;SDS011;1717;50.240;8.406;2022-11-15T10:46:44;5.27;;;4.50;;
3407;SDS011;1717;50.240;8.406;2022-11-15T10:49:14;4.33;;;3.90;;
3407;SDS011;1717;50.240;8.406;2022-11-15T10:51:45;9.63;;;5.23;;
3407;SDS011;1717;50.240;8.406;2022-11-15T10:54:14;5.37;;;4.40;;
3407;SDS011;1717;50.240;8.406;2022-11-15T10:56:50;5.80;;;4.20;;
3407;SDS011;1717;50.240;8.406;2022-11-15T10:59:22;6.30;;;4.23;;
3407;SDS011;1717;50.240;8.406;2022-11-15T11:01:52;4.90;;;4.40;;
3407;SDS011;1717;50.240;8.406;2022-11-15T11:04:18;4.53;;;3.90;;
3407;SDS011;1717;50.240;8.406;2022-11-15T11:06:46;5.13;;;3.80;;
3407;SDS011;1717;50.240;8.406;2022-11-15T11:09:21;4.27;;;3.53;;
3407;SDS011;1717;50.240;8.406;2022-11-15T11:11:54;4.33;;;3.90;;
3407;SDS011;1717;50.240;8.406;2022-11-15T11:14:22;5.50;;;4.30;;
3407;SDS011;1717;50.240;8.406;2022-11-15T11:16:52;4.20;;;3.73;;
3407;SDS011;1717;50.240;8.406;2022-11-15T11:19:31;5.83;;;4.33;;
3407;SDS011;1717;50.240;8.406;2022-11-15T11:22:15;5.27;;;4.10;;
3407;SDS011;1717;50.240;8.406;2022-11-15T11:24:48;5.37;;;4.87;;
3407;SDS011;1717;50.240;8.406;2022-11-15T11:27:26;8.27;;;3.77;;
3407;SDS011;1717;50.240;8.406;2022-11-15T11:30:06;5.27;;;3.87;;
3407;SDS011;1717;50.240;8.406;2022-11-15T11:35:34;4.07;;;3.67;;
3407;SDS011;1717;50.240;8.406;2022-11-15T11:38:22;4.07;;;3.67;;
3407;SDS011;1717;50.240;8.406;2022-11-15T11:41:12;3.60;;;3.23;;
3407;SDS011;1717;50.240;8.406;2022-11-15T11:43:47;4.80;;;3.80;;
3407;SDS011;1717;50.240;8.406;2022-11-15T11:46:25;4.20;;;3.80;;
3407;SDS011;1717;50.240;8.406;2022-11-15T11:49:12;5.60;;;4.00;;
3407;SDS011;1717;50.240;8.406;2022-11-15T11:51:49;3.90;;;3.60;;
3407;SDS011;1717;50.240;8.406;2022-11-15T11:54:20;5.23;;;3.70;;
3407;SDS011;1717;50.240;8.406;2022-11-15T11:56:52;4.10;;;3.80;;
3407;SDS011;1717;50.240;8.406;2022-11-15T11:59:25;4.93;;;4.03;;
3407;SDS011;1717;50.240;8.406;2022-11-15T12:02:02;4.53;;;3.70;;
3407;SDS011;1717;50.240;8.406;2022-11-15T12:04:39;4.90;;;4.40;;
3407;SDS011;1717;50.240;8.406;2022-11-15T12:07:11;5.00;;;4.50;;
3407;SDS011;1717;50.240;8.406;2022-11-15T12:09:44;6.47;;;4.20;;
3407;SDS011;1717;50.240;8.406;2022-11-15T12:12:18;5.57;;;4.87;;
3407;SDS011;1717;50.240;8.406;2022-11-15T12:14:51;5.40;;;4.80;;
3407;SDS011;1717;50.240;8.406;2022-11-15T12:17:23;5.70;;;5.10;;
3407;SDS011;1717;50.240;8.406;2022-11-15T12:19:51;5.40;;;4.70;;
3407;SDS011;1717;50.240;8.406;2022-11-15T12:22:22;5.77;;;4.90;;
3407;SDS011;1717;50.240;8.406;2022-11-15T12:24:55;5.70;;;5.20;;
3407;SDS011;1717;50.240;8.406;2022-11-15T12:27:30;5.80;;;5.20;;
3407;SDS011;1717;50.240;8.406;2022-11-15T12:30:03;6.10;;;5.17;;
3407;SDS011;1717;50.240;8.406;2022-11-15T12:32:37;7.27;;;5.80;;
3407;SDS011;1717;50.240;8.406;2022-11-15T12:35:20;5.13;;;4.73;;
3407;SDS011;1717;50.240;8.406;2022-11-15T12:37:50;6.07;;;5.27;;
3407;SDS011;1717;50.240;8.406;2022-11-15T12:40:30;6.27;;;5.70;;
3407;SDS011;1717;50.240;8.406;2022-11-15T12:43:03;6.43;;;5.83;;
3407;SDS011;1717;50.240;8.406;2022-11-15T12:45:33;6.53;;;5.83;;
3407;SDS011;1717;50.240;8.406;2022-11-15T12:51:07;7.90;;;6.20;;
3407;SDS011;1717;50.240;8.406;2022-11-15T12:53:33;6.70;;;6.07;;
3407;SDS011;1717;50.240;8.406;2022-11-15T12:58:48;6.30;;;5.70;;
3407;SDS011;1717;50.240;8.406;2022-11-15T13:04:22;7.23;;;5.40;;
3407;SDS011;1717;50.240;8.406;2022-11-15T13:06:52;7.73;;;6.90;;
3407;SDS011;1717;50.240;8.406;2022-11-15T13:15:33;8.67;;;7.50;;
3407;SDS011;1717;50.240;8.406;2022-11-15T13:20:55;6.33;;;5.70;;
3407;SDS011;1717;50.240;8.406;2022-11-15T13:23:23;7.20;;;6.60;;
3407;SDS011;1717;50.240;8.406;2022-11-15T13:25:55;6.97;;;6.37;;
3407;SDS011;1717;50.240;8.406;2022-11-15T13:28:36;7.50;;;6.80;;
3407;SDS011;1717;50.240;8.406;2022-11-15T13:31:16;6.90;;;6.20;;
3407;SDS011;1717;50.240;8.406;2022-11-15T13:33:53;7.30;;;6.60;;
3407;SDS011;1717;50.240;8.406;2022-11-15T13:36:23;8.07;;;7.37;;
3407;SDS011;1717;50.240;8.406;2022-11-15T13:38:57;6.23;;;5.63;;
3407;SDS011;1717;50.240;8.406;2022-11-15T13:41:27;7.30;;;6.70;;
3407;SDS011;1717;50.240;8.406;2022-11-15T13:43:55;8.70;;;7.90;;
3407;SDS011;1717;50.240;8.406;2022-11-15T13:46:23;7.40;;;6.20;;
3407;SDS011;1717;50.240;8.406;2022-11-15T13:48:52;8.53;;;7.73;;
3407;SDS011;1717;50.240;8.406;2022-11-15T13:51:22;9.27;;;8.47;;
3407;SDS011;1717;50.240;8.406;2022-11-15T13:53:56;8.93;;;8.13;;
3407;SDS011;1717;50.240;8.406;2022-11-15T13:56:27;9.80;;;8.60;;
3407;SDS011;1717;50.240;8.406;2022-11-15T13:58:57;10.30;;;8.67;;
3407;SDS011;1717;50.240;8.406;2022-11-15T14:01:24;9.47;;;8.47;;
3407;SDS011;1717;50.240;8.406;2022-11-15T14:03:56;10.03;;;8.70;;
3407;SDS011;1717;50.240;8.406;2022-11-15T14:06:24;9.23;;;8.43;;
3407;SDS011;1717;50.240;8.406;2022-11-15T14:12:02;10.60;;;9.70;;
3407;SDS011;1717;50.240;8.406;2022-11-15T14:14:51;8.73;;;7.93;;
3407;SDS011;1717;50.240;8.406;2022-11-15T14:17:20;8.80;;;7.83;;
3407;SDS011;1717;50.240;8.406;2022-11-15T14:19:58;11.23;;;9.60;;
3407;SDS011;1717;50.240;8.406;2022-11-15T14:22:26;9.20;;;8.30;;
3407;SDS011;1717;50.240;8.406;2022-11-15T14:25:13;8.97;;;8.17;;
3407;SDS011;1717;50.240;8.406;2022-11-15T14:27:43;9.43;;;8.20;;
3407;SDS011;1717;50.240;8.406;2022-11-15T14:30:15;10.00;;;9.00;;
3407;SDS011;1717;50.240;8.406;2022-11-15T14:32:43;8.50;;;7.70;;
3407;SDS011;1717;50.240;8.406;2022-11-15T14:35:13;8.90;;;8.10;;
3407;SDS011;1717;50.240;8.406;2022-11-15T14:37:41;7.80;;;7.03;;
3407;SDS011;1717;50.240;8.406;2022-11-15T14:40:13;7.53;;;6.93;;
3407;SDS011;1717;50.240;8.406;2022-11-15T14:42:41;7.97;;;7.17;;
3407;SDS011;1717;50.240;8.406;2022-11-15T14:45:09;7.40;;;6.70;;
3407;SDS011;1717;50.240;8.406;2022-11-15T14:47:40;7.20;;;6.50;;
3407;SDS011;1717;50.240;8.406;2022-11-15T14:50:10;7.97;;;6.30;;
3407;SDS011;1717;50.240;8.406;2022-11-15T14:52:38;5.90;;;5.40;;
3407;SDS011;1717;50.240;8.406;2022-11-15T14:55:10;6.83;;;5.77;;
3407;SDS011;1717;50.240;8.406;2022-11-15T14:57:42;6.73;;;5.43;;
3407;SDS011;1717;50.240;8.406;2022-11-15T15:00:10;7.23;;;5.80;;
3407;SDS011;1717;50.240;8.406;2022-11-15T15:02:37;5.93;;;5.33;;
3407;SDS011;1717;50.240;8.406;2022-11-15T15:05:10;5.70;;;5.27;;
3407;SDS011;1717;50.240;8.406;2022-11-15T15:07:42;6.30;;;5.37;;
3407;SDS011;1717;50.240;8.406;2022-11-15T15:10:10;5.20;;;4.70;;
3407;SDS011;1717;50.240;8.406;2022-11-15T15:12:38;5.17;;;4.67;;
3407;SDS011;1717;50.240;8.406;2022-11-15T15:15:05;5.40;;;4.90;;
3407;SDS011;1717;50.240;8.406;2022-11-15T15:17:38;6.80;;;4.10;;
3407;SDS011;1717;50.240;8.406;2022-11-15T15:20:05;5.30;;;4.80;;
3407;SDS011;1717;50.240;8.406;2022-11-15T15:22:32;5.87;;;3.80;;
3407;SDS011;1717;50.240;8.406;2022-11-15T15:24:59;3.67;;;3.37;;
3407;SDS011;1717;50.240;8.406;2022-11-15T15:27:27;4.30;;;3.80;;
3407;SDS011;1717;50.240;8.406;2022-11-15T15:29:55;16.67;;;3.87;;
3407;SDS011;1717;50.240;8.406;2022-11-15T15:32:23;4.67;;;3.33;;
3407;SDS011;1717;50.240;8.406;2022-11-15T15:34:51;4.30;;;3.40;;
3407;SDS011;1717;50.240;8.406;2022-11-15T15:37:21;3.00;;;2.70;;
3407;SDS011;1717;50.240;8.406;2022-11-15T15:39:50;8.30;;;3.30;;
3407;SDS011;1717;50.240;8.406;2022-11-15T15:42:18;3.43;;;3.10;;
3407;SDS011;1717;50.240;8.406;2022-11-15T15:44:45;6.53;;;3.47;;
3407;SDS011;1717;50.240;8.406;2022-11-15T15:47:15;5.47;;;3.87;;
3407;SDS011;1717;50.240;8.406;2022-11-15T15:49:46;3.43;;;3.00;;
3407;SDS011;1717;50.240;8.406;2022-11-15T15:52:14;2.87;;;2.40;;
3407;SDS011;1717;50.240;8.406;2022-11-15T15:54:42;4.00;;;3.03;;
3407;SDS011;1717;50.240;8.406;2022-11-15T15:57:10;2.80;;;2.60;;
3407;SDS011;1717;50.240;8.406;2022-11-15T15:59:39;2.83;;;2.50;;
3407;SDS011;1717;50.240;8.406;2022-11-15T16:02:08;2.80;;;2.30;;
3407;SDS011;1717;50.240;8.406;2022-11-15T16:04:38;3.07;;;2.10;;
3407;SDS011;1717;50.240;8.406;2022-11-15T16:07:05;2.20;;;1.77;;
3407;SDS011;1717;50.240;8.406;2022-11-15T16:09:38;2.73;;;2.07;;
3407;SDS011;1717;50.240;8.406;2022-11-15T16:12:22;4.63;;;2.70;;